RJTA(METAR)
10/19 17:00
METAR RJTA 190800Z 34017KT 6000 -RA FEW010 SCT050 OVC080 11/09 Q1020
RMK 2ST010 4SC050 8AS080 A3014=
戻る
トップページへ戻る
IMOC Co,.Ltd.